createdAt,value
2023-05-18T00:00:40.289Z,79.28
2023-05-18T00:01:40.253Z,79.28
2023-05-18T00:02:40.327Z,79.08
2023-05-18T00:03:40.502Z,79.38
2023-05-18T00:04:40.319Z,78.73
2023-05-18T00:05:40.225Z,78.73
2023-05-18T00:06:40.202Z,78.42
2023-05-18T00:07:40.264Z,78.35
2023-05-18T00:08:40.238Z,78.83
2023-05-18T00:09:40.190Z,78.97
2023-05-18T00:10:40.168Z,78.77
2023-05-18T00:11:40.155Z,78.73
2023-05-18T00:12:40.158Z,79.08
2023-05-18T00:13:40.196Z,78.97
2023-05-18T00:14:40.132Z,78.42
2023-05-18T00:15:40.125Z,78.21
2023-05-18T00:16:40.738Z,77.70
2023-05-18T00:17:40.172Z,78.66
2023-05-18T00:18:40.119Z,77.80
2023-05-18T00:19:40.070Z,78.21
2023-05-18T00:20:40.093Z,77.49
2023-05-18T00:21:40.060Z,78.05
2023-05-18T00:22:40.061Z,77.49
2023-05-18T00:23:40.048Z,78.45
2023-05-18T00:24:40.028Z,78.42
2023-05-18T00:25:40.043Z,78.52
2023-05-18T00:26:40.020Z,78.45
2023-05-18T00:27:40.008Z,78.77
2023-05-18T00:28:40.013Z,78.97
2023-05-18T00:29:39.987Z,78.94
2023-05-18T00:30:39.972Z,78.87
2023-05-18T00:31:40.031Z,78.97
2023-05-18T00:32:40.021Z,79.42
2023-05-18T00:33:39.952Z,79.52
2023-05-18T00:34:40.016Z,78.87
2023-05-18T00:35:39.929Z,79.49
2023-05-18T00:36:39.930Z,79.28
2023-05-18T00:37:39.903Z,79.28
2023-05-18T00:38:39.917Z,79.11
2023-05-18T00:39:39.890Z,79.52
2023-05-18T00:40:39.882Z,79.66
2023-05-18T00:41:39.909Z,80.39
2023-05-18T00:42:39.865Z,80.39
2023-05-18T00:43:39.871Z,80.60
2023-05-18T00:44:39.857Z,81.42
2023-05-18T00:45:39.905Z,81.21
2023-05-18T00:46:39.825Z,81.05
2023-05-18T00:47:39.852Z,80.84
2023-05-18T00:48:39.803Z,81.15
2023-05-18T00:49:39.891Z,81.67
2023-05-18T00:50:39.777Z,81.70
2023-05-18T00:51:39.766Z,82.43
2023-05-18T00:52:39.764Z,82.84
2023-05-18T00:53:40.646Z,82.95
2023-05-18T00:54:39.760Z,82.80
2023-05-18T00:55:39.738Z,82.60
2023-05-18T00:56:39.743Z,82.18
2023-05-18T00:57:39.714Z,81.91
2023-05-18T00:58:39.720Z,82.43
2023-05-18T00:59:39.712Z,82.22
2023-05-18T01:00:39.710Z,82.67
2023-05-18T01:01:39.745Z,83.71
2023-05-18T01:02:39.762Z,83.61
2023-05-18T01:03:39.704Z,84.01
2023-05-18T01:04:39.744Z,83.71
2023-05-18T01:05:39.644Z,83.02
2023-05-18T01:06:39.650Z,83.64
2023-05-18T01:07:39.660Z,84.01
2023-05-18T01:08:39.602Z,84.53
2023-05-18T01:09:39.591Z,84.16
2023-05-18T01:10:39.639Z,84.43
2023-05-18T01:11:39.618Z,84.58
2023-05-18T01:12:39.582Z,84.88
2023-05-18T01:13:39.554Z,84.88
2023-05-18T01:14:39.559Z,84.99
2023-05-18T01:15:39.547Z,84.99
2023-05-18T01:16:39.569Z,85.24
2023-05-18T01:17:39.560Z,85.61
2023-05-18T01:18:39.529Z,85.50
2023-05-18T01:19:39.598Z,85.71
2023-05-18T01:20:39.493Z,85.50
2023-05-18T01:21:39.547Z,85.96
2023-05-18T01:22:39.457Z,85.82
2023-05-18T01:23:39.469Z,85.19
2023-05-18T01:24:39.471Z,84.99
2023-05-18T01:25:39.482Z,84.88
2023-05-18T01:26:39.448Z,84.88
2023-05-18T01:27:39.412Z,85.19
2023-05-18T01:28:39.420Z,85.19
2023-05-18T01:29:39.401Z,84.88
2023-05-18T01:30:39.429Z,85.09
2023-05-18T01:31:39.451Z,85.50
2023-05-18T01:32:39.389Z,84.68
2023-05-18T01:33:39.377Z,84.78
2023-05-18T01:34:39.414Z,84.68
2023-05-18T01:35:39.352Z,84.58
2023-05-18T01:36:39.336Z,85.03
2023-05-18T01:37:39.328Z,85.03
2023-05-18T01:38:40.601Z,85.34
2023-05-18T01:39:39.311Z,85.96
2023-05-18T01:40:39.305Z,86.31
2023-05-18T01:41:39.290Z,86.10
2023-05-18T01:42:39.281Z,86.17
2023-05-18T01:43:39.274Z,86.31
2023-05-18T01:44:39.257Z,86.31
2023-05-18T01:45:39.255Z,86.21
2023-05-18T01:46:39.314Z,86.62
2023-05-18T01:47:39.284Z,86.66
2023-05-18T01:48:39.216Z,86.62
2023-05-18T01:49:39.228Z,86.31
2023-05-18T01:50:39.193Z,86.52
2023-05-18T01:51:39.205Z,86.00
2023-05-18T01:52:39.194Z,85.69
2023-05-18T01:53:39.169Z,86.00
2023-05-18T01:54:39.160Z,86.35
2023-05-18T01:55:39.135Z,86.55
2023-05-18T01:56:40.133Z,86.97
2023-05-18T01:57:39.155Z,87.12
2023-05-18T01:58:39.149Z,86.80
2023-05-18T01:59:39.115Z,87.12
2023-05-18T02:00:39.105Z,87.53
2023-05-18T02:01:39.162Z,87.63
2023-05-18T02:02:39.308Z,88.26
2023-05-18T02:03:39.273Z,88.05
2023-05-18T02:04:39.054Z,87.84
2023-05-18T02:05:39.055Z,88.32
2023-05-18T02:06:39.057Z,87.22
2023-05-18T02:07:39.038Z,87.18
2023-05-18T02:08:39.058Z,86.76
2023-05-18T02:09:39.040Z,86.97
2023-05-18T02:10:39.040Z,86.97
2023-05-18T02:11:38.993Z,86.97
2023-05-18T02:12:38.994Z,86.97
2023-05-18T02:13:38.973Z,86.66
2023-05-18T02:14:38.958Z,86.87
2023-05-18T02:15:38.981Z,87.07
2023-05-18T02:16:39.056Z,86.97
2023-05-18T02:17:39.094Z,87.07
2023-05-18T02:18:38.966Z,86.87
2023-05-18T02:19:38.968Z,86.80
2023-05-18T02:20:38.898Z,87.22
2023-05-18T02:21:39.904Z,88.26
2023-05-18T02:22:38.898Z,88.05
2023-05-18T02:23:38.883Z,88.01
2023-05-18T02:24:38.880Z,88.36
2023-05-18T02:25:38.861Z,87.63
2023-05-18T02:26:38.852Z,87.59
2023-05-18T02:27:38.845Z,87.90
2023-05-18T02:28:38.844Z,88.15
2023-05-18T02:29:38.809Z,87.95
2023-05-18T02:30:38.804Z,88.61
2023-05-18T02:31:38.895Z,88.26
2023-05-18T02:32:38.982Z,88.88
2023-05-18T02:33:38.817Z,88.82
2023-05-18T02:34:38.771Z,88.61
2023-05-18T02:35:38.754Z,89.13
2023-05-18T02:36:38.806Z,88.82
2023-05-18T02:37:38.734Z,89.23
2023-05-18T02:38:38.727Z,89.54
2023-05-18T02:39:38.749Z,89.54
2023-05-18T02:40:38.712Z,89.79
2023-05-18T02:41:38.699Z,90.20
2023-05-18T02:42:38.700Z,90.58
2023-05-18T02:43:38.703Z,90.31
2023-05-18T02:44:38.683Z,90.20
2023-05-18T02:45:38.714Z,90.31
2023-05-18T02:46:38.699Z,89.89
2023-05-18T02:47:38.770Z,89.65
2023-05-18T02:48:38.631Z,90.17
2023-05-18T02:49:38.641Z,89.89
2023-05-18T02:50:38.630Z,89.89
2023-05-18T02:51:38.616Z,90.20
2023-05-18T02:52:38.589Z,90.31
2023-05-18T02:53:38.583Z,90.31
2023-05-18T02:54:38.578Z,90.31
2023-05-18T02:55:38.583Z,90.62
2023-05-18T02:56:38.560Z,91.03
2023-05-18T02:57:38.555Z,90.31
2023-05-18T02:58:38.561Z,90.31
2023-05-18T02:59:38.542Z,90.66
2023-05-18T03:00:38.528Z,90.93
2023-05-18T03:01:38.514Z,90.66
2023-05-18T03:02:38.644Z,90.97
2023-05-18T03:03:38.565Z,90.93
2023-05-18T03:04:38.481Z,90.62
2023-05-18T03:05:38.470Z,91.18
2023-05-18T03:06:38.518Z,90.25
2023-05-18T03:07:38.461Z,90.35
2023-05-18T03:08:38.435Z,90.66
2023-05-18T03:09:38.425Z,91.08
2023-05-18T03:10:38.418Z,90.56
2023-05-18T03:11:38.438Z,90.66
2023-05-18T03:12:38.399Z,90.66
2023-05-18T03:13:38.436Z,90.81
2023-05-18T03:14:38.371Z,91.08
2023-05-18T03:15:38.369Z,91.08
2023-05-18T03:16:38.397Z,91.28
2023-05-18T03:17:38.394Z,91.18
2023-05-18T03:18:38.366Z,91.28
2023-05-18T03:19:38.355Z,90.87
2023-05-18T03:20:38.332Z,90.77
2023-05-18T03:21:38.328Z,90.72
2023-05-18T03:22:38.307Z,90.66
2023-05-18T03:23:38.290Z,90.97
2023-05-18T03:24:38.289Z,90.97
2023-05-18T03:25:38.290Z,90.97
2023-05-18T03:26:38.277Z,90.77
2023-05-18T03:27:38.264Z,90.87
2023-05-18T03:28:38.267Z,90.97
2023-05-18T03:29:38.244Z,90.66
2023-05-18T03:30:38.220Z,90.97
2023-05-18T03:31:38.247Z,91.08
2023-05-18T03:32:38.331Z,91.08
2023-05-18T03:33:38.237Z,90.97
2023-05-18T03:34:38.232Z,90.25
2023-05-18T03:35:38.204Z,90.31
2023-05-18T03:36:38.186Z,90.00
2023-05-18T03:37:38.154Z,90.62
2023-05-18T03:38:38.135Z,90.52
2023-05-18T03:39:38.156Z,90.41
2023-05-18T03:40:38.193Z,90.20
2023-05-18T03:41:38.135Z,89.89
2023-05-18T03:42:38.117Z,90.31
2023-05-18T03:43:38.116Z,90.00
2023-05-18T03:44:38.083Z,90.66
2023-05-18T03:45:38.134Z,90.45
2023-05-18T03:46:38.113Z,90.45
2023-05-18T03:47:38.107Z,90.35
2023-05-18T03:48:38.055Z,90.35
2023-05-18T03:49:38.071Z,90.56
2023-05-18T03:50:38.039Z,90.52
2023-05-18T03:51:38.037Z,90.20
2023-05-18T03:52:38.026Z,90.10
2023-05-18T03:53:38.013Z,89.44
2023-05-18T03:54:37.998Z,89.13
2023-05-18T03:55:38.008Z,88.82
2023-05-18T03:56:37.994Z,88.51
2023-05-18T03:57:37.972Z,88.82
2023-05-18T03:58:37.968Z,88.71
2023-05-18T03:59:37.950Z,88.71
2023-05-18T04:00:37.985Z,88.26
2023-05-18T04:01:37.981Z,88.57
2023-05-18T04:02:38.030Z,88.26
2023-05-18T04:03:38.005Z,87.84
2023-05-18T04:04:37.916Z,87.53
2023-05-18T04:05:37.903Z,87.53
2023-05-18T04:06:37.894Z,87.95
2023-05-18T04:07:37.906Z,87.22
2023-05-18T04:08:37.887Z,87.74
2023-05-18T04:09:37.849Z,86.91
2023-05-18T04:10:37.840Z,87.22
2023-05-18T04:11:37.848Z,87.18
2023-05-18T04:12:37.836Z,87.12
2023-05-18T04:13:37.837Z,86.91
2023-05-18T04:14:37.800Z,87.12
2023-05-18T04:15:37.814Z,86.52
2023-05-18T04:16:37.831Z,85.30
2023-05-18T04:17:37.792Z,83.61
2023-05-18T04:18:37.808Z,82.18
2023-05-18T04:19:37.968Z,80.74
2023-05-18T04:20:37.737Z,80.36
2023-05-18T04:21:37.748Z,80.98
2023-05-18T04:22:37.741Z,81.95
2023-05-18T04:23:37.711Z,82.29
2023-05-18T04:24:37.712Z,82.50
2023-05-18T04:25:37.707Z,83.02
2023-05-18T04:26:37.677Z,83.54
2023-05-18T04:27:37.703Z,83.78
2023-05-18T04:28:37.800Z,83.78
2023-05-18T04:29:37.664Z,83.99
2023-05-18T04:30:37.679Z,83.89
2023-05-18T04:31:37.700Z,84.09
2023-05-18T04:32:37.669Z,83.99
2023-05-18T04:33:37.627Z,83.85
2023-05-18T04:34:37.652Z,83.64
2023-05-18T04:35:37.636Z,83.12
2023-05-18T04:36:37.592Z,82.12
2023-05-18T04:37:37.584Z,80.63
2023-05-18T04:38:37.594Z,80.49
2023-05-18T04:39:37.560Z,79.15
2023-05-18T04:40:37.573Z,79.46
2023-05-18T04:41:37.542Z,79.56
2023-05-18T04:42:37.535Z,79.66
2023-05-18T04:43:37.533Z,79.11
2023-05-18T04:44:37.542Z,78.11
2023-05-18T04:45:37.537Z,76.98
2023-05-18T04:46:37.513Z,76.01
2023-05-18T04:47:37.491Z,75.63
2023-05-18T04:48:37.493Z,74.60
2023-05-18T04:50:03.428Z,73.57
2023-05-18T04:50:37.476Z,74.50
2023-05-18T04:51:37.475Z,74.53
2023-05-18T04:52:37.462Z,75.49
2023-05-18T04:53:37.460Z,76.04
2023-05-18T04:54:37.431Z,77.32
2023-05-18T04:55:37.441Z,77.63
2023-05-18T04:56:37.421Z,77.08
2023-05-18T04:57:37.412Z,77.28
2023-05-18T04:58:37.395Z,77.42
2023-05-18T04:59:37.492Z,77.73
2023-05-18T05:00:37.375Z,77.46
2023-05-18T05:01:37.376Z,77.46
2023-05-18T05:02:37.377Z,77.56
2023-05-18T05:03:37.478Z,77.94
2023-05-18T05:04:37.362Z,77.80
2023-05-18T05:05:37.339Z,77.49
2023-05-18T05:06:37.331Z,76.98
2023-05-18T05:07:37.337Z,76.94
2023-05-18T05:08:37.297Z,76.18
2023-05-18T05:09:37.282Z,75.53
2023-05-18T05:10:37.312Z,74.50
2023-05-18T05:11:37.255Z,73.36
2023-05-18T05:12:37.300Z,73.64
2023-05-18T05:13:37.244Z,74.80
2023-05-18T05:14:37.215Z,74.50
2023-05-18T05:15:37.259Z,73.95
2023-05-18T05:16:37.206Z,73.16
2023-05-18T05:17:37.257Z,72.34
2023-05-18T05:18:37.241Z,70.86
2023-05-18T05:19:37.189Z,70.83
2023-05-18T05:20:37.166Z,70.94
2023-05-18T05:21:37.168Z,70.79
2023-05-18T05:22:37.181Z,69.50
2023-05-18T05:23:37.191Z,67.83
2023-05-18T05:24:37.160Z,66.90
2023-05-18T05:25:37.128Z,67.44
2023-05-18T05:26:37.125Z,66.97
2023-05-18T05:27:37.094Z,65.78
2023-05-18T05:28:37.085Z,64.94
2023-05-18T05:29:37.109Z,63.37
2023-05-18T05:30:37.093Z,63.68
2023-05-18T05:31:38.149Z,63.75
2023-05-18T05:32:37.195Z,63.13
2023-05-18T05:33:37.056Z,62.80
2023-05-18T05:34:37.055Z,61.36
2023-05-18T05:35:37.419Z,61.34
2023-05-18T05:36:37.010Z,60.60
2023-05-18T05:37:37.000Z,59.75
2023-05-18T05:38:36.985Z,59.49
2023-05-18T05:39:36.974Z,58.64
2023-05-18T05:40:36.979Z,57.26
2023-05-18T05:41:36.961Z,56.70
2023-05-18T05:42:36.949Z,55.79
2023-05-18T05:43:36.934Z,55.22
2023-05-18T05:44:36.922Z,55.12
2023-05-18T05:45:36.952Z,55.00
2023-05-18T05:46:36.978Z,54.08
2023-05-18T05:47:36.912Z,54.69
2023-05-18T05:48:36.883Z,54.69
2023-05-18T05:49:36.868Z,54.94
2023-05-18T05:50:37.077Z,55.99
2023-05-18T05:51:36.882Z,55.73
2023-05-18T05:52:36.864Z,54.21
2023-05-18T05:53:36.828Z,54.28
2023-05-18T05:54:36.828Z,54.57
2023-05-18T05:55:36.804Z,54.03
2023-05-18T05:56:36.799Z,52.79
2023-05-18T05:57:36.806Z,52.76
2023-05-18T05:58:36.772Z,52.11
2023-05-18T05:59:37.784Z,51.27
2023-05-18T06:00:36.829Z,50.21
2023-05-18T06:01:36.786Z,49.50
2023-05-18T06:02:36.903Z,50.03
2023-05-18T06:03:36.785Z,50.15
2023-05-18T06:04:36.837Z,51.09
2023-05-18T06:05:36.714Z,50.13
2023-05-18T06:06:36.725Z,50.84
2023-05-18T06:07:36.699Z,50.86
2023-05-18T06:08:36.697Z,50.82
2023-05-18T06:09:36.681Z,50.11
2023-05-18T06:10:36.700Z,49.58
2023-05-18T06:11:36.682Z,49.27
2023-05-18T06:12:36.692Z,49.40
2023-05-18T06:13:36.642Z,50.13
2023-05-18T06:14:36.677Z,50.54
2023-05-18T06:15:36.609Z,50.11
2023-05-18T06:16:37.671Z,50.11
2023-05-18T06:17:36.618Z,49.62
2023-05-18T06:18:36.737Z,50.23
2023-05-18T06:19:36.586Z,50.79
2023-05-18T06:20:36.580Z,50.29
2023-05-18T06:21:36.561Z,49.48
2023-05-18T06:22:36.591Z,49.80
2023-05-18T06:23:36.866Z,49.27
2023-05-18T06:24:36.532Z,49.86
2023-05-18T06:25:36.536Z,49.86
2023-05-18T06:26:36.502Z,49.53
2023-05-18T06:27:36.507Z,50.04
2023-05-18T06:28:36.502Z,50.18
2023-05-18T06:29:36.493Z,50.89
2023-05-18T06:30:36.463Z,51.07
2023-05-18T06:31:36.538Z,51.20
2023-05-18T06:32:36.468Z,50.64
2023-05-18T06:33:36.526Z,49.56
2023-05-18T06:34:36.432Z,48.98
2023-05-18T06:35:36.420Z,48.90
2023-05-18T06:36:36.432Z,48.70
2023-05-18T06:37:36.400Z,48.11
2023-05-18T06:38:36.392Z,49.17
2023-05-18T06:39:36.433Z,49.66
2023-05-18T06:40:36.375Z,49.90
2023-05-18T06:41:36.391Z,49.98
2023-05-18T06:42:36.392Z,49.55
2023-05-18T06:43:36.353Z,48.22
2023-05-18T06:44:36.358Z,48.34
2023-05-18T06:45:37.499Z,48.36
2023-05-18T06:46:37.418Z,49.66
2023-05-18T06:47:36.309Z,48.52
2023-05-18T06:48:36.306Z,48.90
2023-05-18T06:49:36.312Z,47.97
2023-05-18T06:50:36.359Z,47.32
2023-05-18T06:51:36.268Z,47.24
2023-05-18T06:52:36.268Z,47.06
2023-05-18T06:53:36.267Z,47.47
2023-05-18T06:54:36.254Z,48.27
2023-05-18T06:55:36.233Z,47.44
2023-05-18T06:56:36.226Z,47.42
2023-05-18T06:57:36.252Z,47.25
2023-05-18T06:58:36.207Z,45.18
2023-05-18T06:59:36.190Z,46.25
2023-05-18T07:00:36.203Z,48.44
2023-05-18T07:01:36.203Z,48.03
2023-05-18T07:02:36.195Z,48.02
2023-05-18T07:03:36.220Z,48.14
2023-05-18T07:04:36.155Z,49.22
2023-05-18T07:05:38.601Z,48.07
2023-05-18T07:06:37.133Z,48.25
2023-05-18T07:07:36.144Z,47.34
2023-05-18T07:08:36.120Z,48.07
2023-05-18T07:09:36.116Z,47.24
2023-05-18T07:10:36.093Z,47.74
2023-05-18T07:11:36.091Z,47.26
2023-05-18T07:12:36.058Z,46.96
2023-05-18T07:13:36.048Z,47.69
2023-05-18T07:14:36.069Z,48.39
2023-05-18T07:15:36.059Z,48.02
2023-05-18T07:16:36.049Z,48.58
2023-05-18T07:17:36.050Z,48.30
2023-05-18T07:18:36.057Z,48.37
2023-05-18T07:19:36.038Z,47.44
2023-05-18T07:20:35.993Z,46.13
2023-05-18T07:21:35.971Z,47.24
2023-05-18T07:22:35.965Z,47.24
2023-05-18T07:23:35.967Z,45.78
2023-05-18T07:24:35.975Z,46.42
2023-05-18T07:25:35.930Z,44.92
2023-05-18T07:26:35.937Z,45.14
2023-05-18T07:27:35.908Z,45.59
2023-05-18T07:28:35.907Z,44.89
2023-05-18T07:29:35.936Z,43.22
2023-05-18T07:30:35.903Z,45.20
2023-05-18T07:31:35.880Z,45.70
2023-05-18T07:32:35.900Z,44.59
2023-05-18T07:33:35.860Z,45.83
2023-05-18T07:34:35.895Z,45.20
2023-05-18T07:35:35.853Z,44.87
2023-05-18T07:36:35.873Z,43.95
2023-05-18T07:37:35.824Z,43.57
2023-05-18T07:38:35.821Z,44.78
2023-05-18T07:39:35.810Z,44.65
2023-05-18T07:40:35.839Z,44.02
2023-05-18T07:41:35.808Z,43.85
2023-05-18T07:42:35.768Z,43.74
2023-05-18T07:43:35.758Z,44.75
2023-05-18T07:44:35.809Z,44.95
2023-05-18T07:45:35.749Z,45.07
2023-05-18T07:46:35.767Z,44.95
2023-05-18T07:47:35.759Z,44.67
2023-05-18T07:48:35.736Z,45.06
2023-05-18T07:49:35.719Z,43.82
2023-05-18T07:50:35.737Z,42.82
2023-05-18T07:51:35.695Z,44.63
2023-05-18T07:52:35.681Z,43.95
2023-05-18T07:53:35.760Z,44.83
2023-05-18T07:54:35.761Z,45.64
2023-05-18T07:55:35.650Z,43.91
2023-05-18T07:56:35.663Z,43.22
2023-05-18T07:57:35.635Z,43.82
2023-05-18T07:58:35.724Z,43.40
2023-05-18T07:59:35.615Z,44.23
2023-05-18T08:00:35.600Z,43.30
2023-05-18T08:01:35.647Z,43.52
2023-05-18T08:02:35.660Z,44.15
2023-05-18T08:03:35.659Z,45.38
2023-05-18T08:04:35.578Z,44.90
2023-05-18T08:05:35.556Z,46.33
2023-05-18T08:06:35.553Z,46.23
2023-05-18T08:07:35.548Z,46.03
2023-05-18T08:08:35.541Z,45.70
2023-05-18T08:09:35.522Z,45.61
2023-05-18T08:10:35.527Z,44.79
2023-05-18T08:11:35.497Z,46.45
2023-05-18T08:12:35.490Z,43.73
2023-05-18T08:13:35.565Z,44.25
2023-05-18T08:14:35.481Z,45.30
2023-05-18T08:15:35.581Z,46.29
2023-05-18T08:16:35.440Z,45.50
2023-05-18T08:17:35.496Z,46.53
2023-05-18T08:18:35.458Z,45.32
2023-05-18T08:19:35.422Z,46.25
2023-05-18T08:20:35.470Z,46.11
2023-05-18T08:21:35.404Z,45.78
2023-05-18T08:22:35.395Z,45.10
2023-05-18T08:23:35.381Z,46.03
2023-05-18T08:24:35.381Z,46.59
2023-05-18T08:25:35.358Z,45.61
2023-05-18T08:26:35.394Z,45.42
2023-05-18T08:27:35.338Z,47.49
2023-05-18T08:28:35.368Z,48.72
2023-05-18T08:29:35.338Z,48.30
2023-05-18T08:30:35.356Z,47.74
2023-05-18T08:31:35.344Z,46.73
2023-05-18T08:32:35.324Z,45.95
2023-05-18T08:33:35.293Z,48.02
2023-05-18T08:34:35.267Z,47.51
2023-05-18T08:35:35.249Z,47.94
2023-05-18T08:36:35.267Z,48.06
2023-05-18T08:37:35.255Z,48.14
2023-05-18T08:38:35.257Z,49.02
2023-05-18T08:39:35.231Z,47.41
2023-05-18T08:40:35.217Z,48.93
2023-05-18T08:41:35.204Z,48.72
2023-05-18T08:42:48.632Z,47.49
2023-05-18T08:43:37.216Z,47.77
2023-05-18T08:44:35.167Z,47.69
2023-05-18T08:45:35.195Z,47.26
2023-05-18T08:46:35.155Z,47.79
2023-05-18T08:47:35.189Z,48.19
2023-05-18T08:48:35.208Z,47.28
2023-05-18T08:49:35.133Z,47.61
2023-05-18T08:50:35.152Z,48.77
2023-05-18T08:51:35.095Z,48.93
2023-05-18T08:52:35.085Z,49.18
2023-05-18T08:53:35.087Z,48.30
2023-05-18T08:54:35.074Z,48.15
2023-05-18T08:55:35.054Z,46.56
2023-05-18T08:56:36.116Z,47.16
2023-05-18T08:57:35.036Z,47.54
2023-05-18T08:58:35.050Z,47.19
2023-05-18T08:59:35.043Z,45.89
2023-05-18T09:00:35.345Z,45.78
2023-05-18T09:01:35.082Z,45.40
2023-05-18T09:02:35.050Z,46.21
2023-05-18T09:03:34.996Z,46.13
2023-05-18T09:04:35.029Z,47.34
2023-05-18T09:05:35.278Z,47.59
2023-05-18T09:06:34.999Z,48.70
2023-05-18T09:07:34.960Z,48.52
2023-05-18T09:08:34.931Z,48.30
2023-05-18T09:09:34.931Z,48.50
2023-05-18T09:10:34.917Z,48.30
2023-05-18T09:11:34.899Z,48.30
2023-05-18T09:12:34.900Z,48.10
2023-05-18T09:13:34.892Z,48.52
2023-05-18T09:14:34.880Z,48.60
2023-05-18T09:15:34.848Z,47.99
2023-05-18T09:16:34.984Z,47.16
2023-05-18T09:17:34.879Z,47.67
2023-05-18T09:18:34.860Z,46.96
2023-05-18T09:19:34.841Z,47.28
2023-05-18T09:20:34.845Z,48.10
2023-05-18T09:21:34.806Z,48.30
2023-05-18T09:22:34.803Z,48.22
2023-05-18T09:23:34.802Z,48.52
2023-05-18T09:24:34.805Z,47.99
2023-05-18T09:25:34.774Z,48.37
2023-05-18T09:26:34.744Z,47.28
2023-05-18T09:27:34.739Z,48.10
2023-05-18T09:28:34.755Z,49.99
2023-05-18T09:29:34.728Z,48.25
2023-05-18T09:30:34.784Z,48.61
2023-05-18T09:31:34.754Z,48.58
2023-05-18T09:32:34.758Z,47.80
2023-05-18T09:33:34.746Z,47.12
2023-05-18T09:34:34.681Z,46.61
2023-05-18T09:35:34.953Z,47.74
2023-05-18T09:36:34.713Z,47.36
2023-05-18T09:37:34.642Z,48.07
2023-05-18T09:38:34.642Z,47.34
2023-05-18T09:39:34.627Z,47.54
2023-05-18T09:40:34.672Z,47.24
2023-05-18T09:41:34.598Z,48.00
2023-05-18T09:42:34.609Z,46.41
2023-05-18T09:43:34.600Z,47.02
2023-05-18T09:44:34.587Z,45.93
2023-05-18T09:45:34.597Z,47.34
2023-05-18T09:46:34.608Z,47.54
2023-05-18T09:47:34.587Z,47.26
2023-05-18T09:48:34.542Z,47.69
2023-05-18T09:49:34.550Z,46.15
2023-05-18T09:50:34.526Z,47.02
2023-05-18T09:51:34.521Z,45.58
2023-05-18T09:52:34.512Z,45.48
2023-05-18T09:53:34.508Z,45.86
2023-05-18T09:54:34.513Z,45.76
2023-05-18T09:55:34.501Z,46.61
2023-05-18T09:56:34.469Z,45.95
2023-05-18T09:57:34.469Z,46.66
2023-05-18T09:58:34.482Z,46.76
2023-05-18T09:59:34.444Z,45.97
2023-05-18T10:00:34.513Z,46.70
2023-05-18T10:01:34.469Z,46.14
2023-05-18T10:02:34.483Z,47.78
2023-05-18T10:03:34.452Z,47.58
2023-05-18T10:04:34.421Z,48.31
2023-05-18T10:05:36.123Z,48.21
2023-05-18T10:06:35.403Z,47.58
2023-05-18T10:07:34.411Z,48.28
2023-05-18T10:08:34.376Z,48.21
2023-05-18T10:09:34.339Z,48.21
2023-05-18T10:10:34.370Z,49.42
2023-05-18T10:11:34.412Z,48.00
2023-05-18T10:12:34.329Z,47.27
2023-05-18T10:13:34.336Z,46.56
2023-05-18T10:14:34.300Z,46.56
2023-05-18T10:15:34.308Z,45.12
2023-05-18T10:16:34.334Z,44.01
2023-05-18T10:17:34.416Z,43.10
2023-05-18T10:18:34.279Z,44.13
2023-05-18T10:19:34.263Z,44.15
2023-05-18T10:20:34.277Z,45.86
2023-05-18T10:21:34.248Z,46.87
2023-05-18T10:22:34.243Z,45.65
2023-05-18T10:23:34.345Z,45.55
2023-05-18T10:24:34.234Z,45.45
2023-05-18T10:25:34.215Z,46.36
2023-05-18T10:26:34.209Z,47.38
2023-05-18T10:27:34.179Z,47.47
2023-05-18T10:28:35.213Z,47.75
2023-05-18T10:29:34.206Z,46.46
2023-05-18T10:30:34.285Z,47.17
2023-05-18T10:31:34.265Z,46.89
2023-05-18T10:32:34.149Z,46.87
2023-05-18T10:33:34.236Z,47.38
2023-05-18T10:34:34.103Z,45.61
2023-05-18T10:35:34.146Z,44.80
2023-05-18T10:36:34.096Z,45.39
2023-05-18T10:37:34.067Z,45.71
2023-05-18T10:38:34.080Z,45.73
2023-05-18T10:39:34.070Z,45.65
2023-05-18T10:40:34.109Z,44.92
2023-05-18T10:41:34.042Z,44.52
2023-05-18T10:42:34.053Z,45.63
2023-05-18T10:43:34.024Z,45.96
2023-05-18T10:44:34.020Z,46.46
2023-05-18T10:45:34.014Z,45.25
2023-05-18T10:46:34.229Z,45.45
2023-05-18T10:47:34.220Z,47.13
2023-05-18T10:48:33.993Z,45.59
2023-05-18T10:49:33.975Z,44.09
2023-05-18T10:51:05.864Z,45.33
2023-05-18T10:51:34.602Z,45.51
2023-05-18T10:52:33.983Z,45.53
2023-05-18T10:53:33.931Z,45.65
2023-05-18T10:54:33.914Z,46.48
2023-05-18T10:55:33.925Z,47.47
2023-05-18T10:56:33.905Z,46.67
2023-05-18T10:57:33.917Z,46.64
2023-05-18T10:58:33.869Z,46.60
2023-05-18T10:59:33.873Z,46.22
2023-05-18T11:00:33.899Z,45.41
2023-05-18T11:01:33.908Z,45.63
2023-05-18T11:02:33.842Z,46.32
2023-05-18T11:03:33.856Z,46.42
2023-05-18T11:04:33.875Z,47.23
2023-05-18T11:05:33.805Z,46.14
2023-05-18T11:06:33.779Z,46.26
2023-05-18T11:07:33.800Z,47.38
2023-05-18T11:08:33.787Z,47.67
2023-05-18T11:09:33.782Z,46.04
2023-05-18T11:10:33.747Z,46.44
2023-05-18T11:11:33.753Z,45.45
2023-05-18T11:12:33.750Z,45.33
2023-05-18T11:13:33.733Z,46.95
2023-05-18T11:14:33.765Z,46.75
2023-05-18T11:15:33.712Z,46.26
2023-05-18T11:16:33.757Z,46.36
2023-05-18T11:17:33.737Z,47.19
2023-05-18T11:18:33.714Z,46.16
2023-05-18T11:19:33.653Z,46.26
2023-05-18T11:20:33.669Z,45.55
2023-05-18T11:21:33.636Z,46.34
2023-05-18T11:22:33.643Z,45.81
2023-05-18T11:23:33.626Z,45.49
2023-05-18T11:24:33.625Z,45.08
2023-05-18T11:25:33.627Z,44.96
2023-05-18T11:26:33.607Z,44.98
2023-05-18T11:27:33.657Z,44.37
2023-05-18T11:28:33.577Z,45.61
2023-05-18T11:29:33.603Z,45.10
2023-05-18T11:30:33.804Z,46.70
2023-05-18T11:31:33.580Z,46.48
2023-05-18T11:32:33.668Z,45.75
2023-05-18T11:33:33.589Z,45.14
2023-05-18T11:34:33.526Z,44.94
2023-05-18T11:35:33.498Z,44.96
2023-05-18T11:36:33.489Z,45.69
2023-05-18T11:37:33.510Z,46.42
2023-05-18T11:38:33.475Z,46.62
2023-05-18T11:39:34.764Z,47.03
2023-05-18T11:40:33.493Z,45.41
2023-05-18T11:41:33.449Z,46.22
2023-05-18T11:42:33.497Z,47.63
2023-05-18T11:43:33.426Z,46.01
2023-05-18T11:44:34.426Z,46.54
2023-05-18T11:45:33.426Z,47.45
2023-05-18T11:46:33.427Z,47.47
2023-05-18T11:47:33.450Z,47.27
2023-05-18T11:48:33.514Z,47.70
2023-05-18T11:49:33.358Z,48.39
2023-05-18T11:50:33.605Z,46.26
2023-05-18T11:51:33.366Z,47.27
2023-05-18T11:52:33.339Z,46.95
2023-05-18T11:53:33.333Z,47.17
2023-05-18T11:54:33.339Z,47.78
2023-05-18T11:55:33.313Z,48.97
2023-05-18T11:56:33.317Z,47.83
2023-05-18T11:57:33.367Z,46.09
2023-05-18T11:58:33.277Z,47.41
2023-05-18T11:59:33.263Z,45.29
2023-05-18T12:00:33.375Z,45.57
2023-05-18T12:01:33.247Z,45.20
2023-05-18T12:02:33.339Z,45.89
2023-05-18T12:03:33.315Z,47.39
2023-05-18T12:04:33.245Z,46.07
2023-05-18T12:05:33.245Z,46.25
2023-05-18T12:06:33.203Z,46.76
2023-05-18T12:07:33.276Z,45.32
2023-05-18T12:08:33.184Z,44.94
2023-05-18T12:09:33.174Z,44.94
2023-05-18T12:10:33.463Z,46.17
2023-05-18T12:11:33.166Z,45.67
2023-05-18T12:12:33.193Z,45.06
2023-05-18T12:13:33.149Z,45.77
2023-05-18T12:14:33.126Z,45.47
2023-05-18T12:15:33.116Z,45.75
2023-05-18T12:16:33.148Z,45.47
2023-05-18T12:17:33.187Z,46.09
2023-05-18T12:18:33.111Z,47.31
2023-05-18T12:19:33.084Z,47.36
2023-05-18T12:20:33.348Z,45.06
2023-05-18T12:21:33.056Z,46.58
2023-05-18T12:22:33.094Z,45.47
2023-05-18T12:23:33.077Z,45.26
2023-05-18T12:24:33.036Z,46.58
2023-05-18T12:25:33.334Z,45.47
2023-05-18T12:26:33.005Z,46.30
2023-05-18T12:27:33.014Z,46.22
2023-05-18T12:28:32.996Z,47.67
2023-05-18T12:29:33.000Z,47.38
2023-05-18T12:30:33.010Z,47.47
2023-05-18T12:31:33.102Z,46.67
2023-05-18T12:32:32.972Z,47.47
2023-05-18T12:33:32.948Z,47.80
2023-05-18T12:34:32.969Z,47.78
2023-05-18T12:35:33.540Z,47.70
2023-05-18T12:36:32.938Z,48.31
2023-05-18T12:37:41.606Z,47.39
2023-05-18T12:38:34.899Z,46.06
2023-05-18T12:39:33.886Z,47.07
2023-05-18T12:40:32.889Z,47.80
2023-05-18T12:41:32.877Z,47.38
2023-05-18T12:42:32.854Z,47.78
2023-05-18T12:43:32.845Z,48.79
2023-05-18T12:44:32.843Z,48.39
2023-05-18T12:45:33.051Z,46.84
2023-05-18T12:46:32.833Z,47.38
2023-05-18T12:47:33.026Z,47.58
2023-05-18T12:48:32.809Z,47.50
2023-05-18T12:49:32.790Z,47.30
2023-05-18T12:50:32.781Z,47.39
2023-05-18T12:51:32.787Z,47.78
2023-05-18T12:52:32.741Z,47.88